createdAt,value
2023-01-21T00:01:10.489Z,1.70
2023-01-21T00:03:38.568Z,1.80
2023-01-21T00:06:07.079Z,1.80
2023-01-21T00:08:34.954Z,1.70
2023-01-21T00:11:06.405Z,1.80
2023-01-21T00:13:36.556Z,1.80
2023-01-21T00:16:05.297Z,1.70
2023-01-21T00:18:34.907Z,1.90
2023-01-21T00:21:02.746Z,1.70
2023-01-21T00:23:30.790Z,1.50
2023-01-21T00:25:59.630Z,1.50
2023-01-21T00:28:29.396Z,1.40
2023-01-21T00:31:02.704Z,1.30
2023-01-21T00:33:31.312Z,1.30
2023-01-21T00:36:01.420Z,1.30
2023-01-21T00:38:29.843Z,1.40
2023-01-21T00:41:01.891Z,1.50
2023-01-21T00:43:30.779Z,1.50
2023-01-21T00:45:59.142Z,1.40
2023-01-21T00:48:29.224Z,1.30
2023-01-21T00:51:00.438Z,1.30
2023-01-21T00:53:29.415Z,1.30
2023-01-21T00:56:01.037Z,1.30
2023-01-21T00:58:29.018Z,1.20
2023-01-21T01:01:02.679Z,1.40
2023-01-21T01:03:32.256Z,1.20
2023-01-21T01:06:04.201Z,1.20
2023-01-21T01:08:32.171Z,1.10
2023-01-21T01:11:00.467Z,1.10
2023-01-21T01:13:28.988Z,1.10
2023-01-21T01:15:58.521Z,1.20
2023-01-21T01:18:27.538Z,1.10
2023-01-21T01:20:56.925Z,1.10
2023-01-21T01:23:25.123Z,1.10
2023-01-21T01:25:56.870Z,1.20
2023-01-21T01:28:25.000Z,1.30
2023-01-21T01:30:52.954Z,1.20
2023-01-21T01:33:20.893Z,1.20
2023-01-21T01:35:48.929Z,1.10
2023-01-21T01:38:20.963Z,1.20
2023-01-21T01:40:50.360Z,1.10
2023-01-21T01:43:21.093Z,1.10
2023-01-21T01:45:49.544Z,1.00
2023-01-21T01:48:20.244Z,1.10
2023-01-21T01:50:49.752Z,0.90
2023-01-21T01:53:20.600Z,0.90
2023-01-21T01:55:49.872Z,0.90
2023-01-21T01:58:20.116Z,0.90
2023-01-21T02:00:47.926Z,0.90
2023-01-21T02:03:35.143Z,0.90
2023-01-21T02:06:03.545Z,0.80
2023-01-21T02:08:36.073Z,0.70
2023-01-21T02:11:07.432Z,0.90
2023-01-21T02:13:35.260Z,0.90
2023-01-21T02:16:19.191Z,0.80
2023-01-21T02:18:57.045Z,0.80
2023-01-21T02:21:53.429Z,0.70
2023-01-21T02:25:03.098Z,0.70
2023-01-21T02:27:59.962Z,0.60
2023-01-21T02:30:41.454Z,0.60
2023-01-21T02:33:33.494Z,0.70
2023-01-21T02:36:11.314Z,0.50
2023-01-21T02:38:45.444Z,0.50
2023-01-21T02:41:24.136Z,0.40
2023-01-21T02:43:58.283Z,0.40
2023-01-21T02:46:40.806Z,0.50
2023-01-21T02:49:16.739Z,0.50
2023-01-21T02:51:48.541Z,0.50
2023-01-21T02:54:37.265Z,0.40
2023-01-21T02:57:06.024Z,0.50
2023-01-21T02:59:35.197Z,0.50
2023-01-21T03:02:14.601Z,0.40
2023-01-21T03:04:53.852Z,0.20
2023-01-21T03:07:28.838Z,0.20
2023-01-21T03:10:02.378Z,0.30
2023-01-21T03:12:42.107Z,0.30
2023-01-21T03:15:34.481Z,0.30
2023-01-21T03:18:08.708Z,0.40
2023-01-21T03:20:43.120Z,0.60
2023-01-21T03:23:15.435Z,0.60
2023-01-21T03:25:43.521Z,0.50
2023-01-21T03:28:16.983Z,0.40
2023-01-21T03:30:49.225Z,0.60
2023-01-21T03:33:19.919Z,0.40
2023-01-21T03:35:52.088Z,0.30
2023-01-21T03:38:25.620Z,0.20
2023-01-21T03:40:59.759Z,0.30
2023-01-21T03:43:27.952Z,0.20
2023-01-21T03:46:02.165Z,0.10
2023-01-21T03:48:36.127Z,0.10
2023-01-21T03:51:09.443Z,0.10
2023-01-21T03:53:37.583Z,0.00
2023-01-21T03:56:05.924Z,-0.10
2023-01-21T03:58:33.723Z,-0.20
2023-01-21T04:01:01.706Z,-0.30
2023-01-21T04:03:29.512Z,-0.50
2023-01-21T04:05:57.351Z,-0.40
2023-01-21T04:08:26.550Z,-0.30
2023-01-21T04:10:54.370Z,-0.10
2023-01-21T04:13:22.193Z,0.20
2023-01-21T04:15:50.017Z,0.40
2023-01-21T04:18:17.828Z,0.30
2023-01-21T04:20:47.307Z,0.20
2023-01-21T04:23:15.123Z,0.10
2023-01-21T04:25:44.254Z,0.30
2023-01-21T04:28:12.187Z,0.30
2023-01-21T04:30:40.018Z,0.30
2023-01-21T04:33:07.826Z,0.50
2023-01-21T04:35:36.081Z,0.50
2023-01-21T04:38:04.425Z,0.70
2023-01-21T04:40:32.514Z,0.80
2023-01-21T04:43:01.688Z,0.60
2023-01-21T04:45:29.528Z,0.60
2023-01-21T04:47:57.343Z,0.50
2023-01-21T04:50:25.209Z,0.30
2023-01-21T04:52:53.090Z,0.40
2023-01-21T04:55:20.934Z,0.60
2023-01-21T04:57:48.748Z,0.50
2023-01-21T05:00:19.568Z,0.50
2023-01-21T05:02:47.367Z,0.70
2023-01-21T05:05:15.333Z,1.00
2023-01-21T05:07:43.233Z,1.20
2023-01-21T05:10:16.767Z,1.30
2023-01-21T05:12:44.871Z,1.40
2023-01-21T05:15:13.134Z,1.50
2023-01-21T05:17:42.293Z,1.60
2023-01-21T05:20:11.562Z,1.30
2023-01-21T05:22:39.412Z,1.30
2023-01-21T05:25:07.946Z,1.40
2023-01-21T05:27:35.785Z,1.40
2023-01-21T05:30:03.833Z,1.40
2023-01-21T05:32:31.665Z,1.50
2023-01-21T05:35:00.843Z,1.60
2023-01-21T05:37:28.660Z,1.70
2023-01-21T05:39:56.472Z,1.80
2023-01-21T05:42:24.333Z,1.90
2023-01-21T05:44:52.113Z,2.00
2023-01-21T05:47:20.087Z,2.00
2023-01-21T05:49:48.006Z,2.00
2023-01-21T05:52:17.192Z,2.10
2023-01-21T05:55:00.490Z,2.10
2023-01-21T05:57:29.526Z,2.20
2023-01-21T05:59:57.421Z,2.20
2023-01-21T06:02:25.451Z,2.20
2023-01-21T06:04:53.673Z,2.30
2023-01-21T06:07:22.848Z,2.20
2023-01-21T06:09:50.659Z,2.30
2023-01-21T06:12:18.534Z,2.30
2023-01-21T06:14:46.342Z,2.30
2023-01-21T06:17:14.171Z,2.30
2023-01-21T06:19:42.046Z,2.30
2023-01-21T06:22:14.464Z,2.30
2023-01-21T06:24:43.694Z,2.30
2023-01-21T06:27:11.599Z,2.30
2023-01-21T06:29:39.485Z,2.20
2023-01-21T06:32:07.645Z,2.30
2023-01-21T06:34:35.509Z,2.20
2023-01-21T06:37:03.378Z,2.20
2023-01-21T06:39:31.197Z,2.20
2023-01-21T06:42:00.322Z,2.10
2023-01-21T06:44:28.205Z,2.00
2023-01-21T06:47:03.350Z,2.00
2023-01-21T06:49:31.184Z,2.10
2023-01-21T06:51:58.980Z,2.00
2023-01-21T06:54:29.419Z,1.90
2023-01-21T06:56:58.474Z,2.00
2023-01-21T06:59:27.810Z,2.00
2023-01-21T07:01:58.800Z,1.90
2023-01-21T07:04:26.819Z,2.00
2023-01-21T07:06:54.859Z,1.90
2023-01-21T07:09:22.977Z,1.80
2023-01-21T07:11:50.825Z,1.70
2023-01-21T07:14:18.726Z,1.80
2023-01-21T07:16:47.926Z,1.70
2023-01-21T07:19:15.776Z,1.80
2023-01-21T07:21:43.596Z,1.70
2023-01-21T07:24:11.414Z,1.70
2023-01-21T07:26:39.187Z,1.70
2023-01-21T07:29:07.297Z,1.80
2023-01-21T07:31:35.302Z,1.80
2023-01-21T07:34:04.817Z,1.80
2023-01-21T07:36:32.954Z,1.80
2023-01-21T07:39:00.751Z,1.80
2023-01-21T07:41:28.524Z,1.90
2023-01-21T07:43:56.301Z,1.90
2023-01-21T07:46:24.667Z,1.80
2023-01-21T07:48:53.040Z,1.70
2023-01-21T07:51:23.167Z,1.20
2023-01-21T07:53:51.462Z,1.00
2023-01-21T07:56:20.265Z,0.60
2023-01-21T07:58:48.062Z,0.60
2023-01-21T08:01:15.865Z,0.40
2023-01-21T08:03:43.638Z,0.50
2023-01-21T08:06:11.387Z,0.30
2023-01-21T08:08:40.507Z,0.40
2023-01-21T08:11:08.312Z,0.30
2023-01-21T08:13:36.071Z,0.20
2023-01-21T08:16:04.593Z,0.10
2023-01-21T08:18:32.532Z,0.00
2023-01-21T08:21:00.935Z,-0.10
2023-01-21T08:23:28.869Z,-0.10
2023-01-21T08:25:57.978Z,-0.20
2023-01-21T08:28:27.886Z,-0.20
2023-01-21T08:30:55.781Z,-0.30
2023-01-21T08:33:23.561Z,-0.40
2023-01-21T08:35:51.457Z,-0.40
2023-01-21T08:38:19.229Z,-0.50
2023-01-21T08:40:46.978Z,-0.50
2023-01-21T08:43:16.102Z,-0.40
2023-01-21T08:45:44.099Z,-0.40
2023-01-21T08:48:11.945Z,-0.40
2023-01-21T08:50:39.731Z,-0.40
2023-01-21T08:53:07.577Z,-0.40
2023-01-21T08:55:35.339Z,-0.30
2023-01-21T08:58:03.113Z,-0.30
2023-01-21T09:00:32.299Z,-0.30
2023-01-21T09:03:00.567Z,-0.30
2023-01-21T09:05:28.439Z,-0.30
2023-01-21T09:07:58.085Z,-0.20
2023-01-21T09:10:44.037Z,-0.10
2023-01-21T09:13:11.943Z,-0.10
2023-01-21T09:15:42.465Z,0.00
2023-01-21T09:18:10.563Z,0.00
2023-01-21T09:20:39.511Z,0.10
2023-01-21T09:23:24.149Z,0.20
2023-01-21T09:25:52.664Z,0.30
2023-01-21T09:28:21.609Z,0.50
2023-01-21T09:30:50.817Z,0.70
2023-01-21T09:33:18.628Z,0.80
2023-01-21T09:35:46.527Z,1.00
2023-01-21T09:38:14.303Z,1.20
2023-01-21T09:40:46.144Z,1.30
2023-01-21T09:43:20.210Z,1.20
2023-01-21T09:45:51.477Z,1.10
2023-01-21T09:48:29.354Z,1.10
2023-01-21T09:51:00.863Z,1.20
2023-01-21T09:53:33.747Z,1.20
2023-01-21T09:56:07.017Z,1.30
2023-01-21T09:58:39.780Z,1.40
2023-01-21T10:01:15.638Z,1.40
2023-01-21T10:03:49.285Z,1.30
2023-01-21T10:06:23.104Z,1.30
2023-01-21T10:09:23.655Z,1.30
2023-01-21T10:12:06.071Z,1.40
2023-01-21T10:15:02.563Z,1.70
2023-01-21T10:17:41.200Z,1.80
2023-01-21T10:20:15.919Z,1.90
2023-01-21T10:22:50.773Z,2.10
2023-01-21T10:25:24.291Z,2.00
2023-01-21T10:27:53.594Z,2.10
2023-01-21T10:30:25.166Z,2.10
2023-01-21T10:32:56.424Z,2.20
2023-01-21T10:35:39.111Z,2.40
2023-01-21T10:38:14.832Z,2.40
2023-01-21T10:40:52.790Z,2.60
2023-01-21T10:43:32.052Z,2.90
2023-01-21T10:46:09.564Z,2.70
2023-01-21T10:48:47.307Z,2.80
2023-01-21T10:51:21.549Z,2.60
2023-01-21T10:53:56.451Z,2.60
2023-01-21T10:56:34.979Z,2.40
2023-01-21T10:59:06.769Z,2.10
2023-01-21T11:01:37.124Z,1.90
2023-01-21T11:04:13.141Z,1.70
2023-01-21T11:06:42.225Z,1.50
2023-01-21T11:09:13.950Z,1.40
2023-01-21T11:11:42.883Z,1.20
2023-01-21T11:14:11.359Z,1.10
2023-01-21T11:16:44.515Z,1.00
2023-01-21T11:19:16.644Z,1.00
2023-01-21T11:22:00.233Z,0.90
2023-01-21T11:24:29.588Z,0.90
2023-01-21T11:27:00.439Z,0.80
2023-01-21T11:29:39.807Z,0.80
2023-01-21T11:32:18.788Z,0.70
2023-01-21T11:34:49.403Z,0.70
2023-01-21T11:37:23.896Z,0.70
2023-01-21T11:39:55.626Z,0.70
2023-01-21T11:42:24.455Z,0.70
2023-01-21T11:44:54.289Z,0.70
2023-01-21T11:47:38.151Z,0.80
2023-01-21T11:50:17.499Z,0.70
2023-01-21T11:52:45.882Z,0.70
2023-01-21T11:55:22.284Z,0.70
2023-01-21T11:57:53.066Z,0.70
2023-01-21T12:00:23.185Z,0.60
2023-01-21T12:02:54.664Z,0.60
2023-01-21T12:05:30.889Z,0.60
2023-01-21T12:07:59.327Z,0.60
2023-01-21T12:10:32.992Z,0.70
2023-01-21T12:13:15.495Z,0.70
2023-01-21T12:15:58.187Z,0.70
2023-01-21T12:18:38.583Z,0.70
2023-01-21T12:21:14.637Z,0.70
2023-01-21T12:23:57.851Z,0.80
2023-01-21T12:26:39.737Z,0.80
2023-01-21T12:29:20.918Z,0.80
2023-01-21T12:31:54.336Z,0.80
2023-01-21T12:34:28.984Z,0.60
2023-01-21T12:37:03.958Z,0.60
2023-01-21T12:39:34.302Z,0.60
2023-01-21T12:42:08.769Z,0.60
2023-01-21T12:44:42.745Z,0.60
2023-01-21T12:47:20.384Z,0.60
2023-01-21T12:50:08.177Z,0.70
2023-01-21T12:52:42.891Z,0.70
2023-01-21T12:55:19.811Z,0.80
2023-01-21T12:57:51.638Z,0.80
2023-01-21T13:00:24.061Z,0.80
2023-01-21T13:02:59.380Z,0.90
2023-01-21T13:05:35.165Z,1.00
2023-01-21T13:08:21.534Z,1.10
2023-01-21T13:10:56.892Z,1.20
2023-01-21T13:13:29.734Z,1.20
2023-01-21T13:16:02.126Z,1.20
2023-01-21T13:18:34.061Z,1.10
2023-01-21T13:21:09.524Z,1.10
2023-01-21T13:23:45.584Z,1.10
2023-01-21T13:26:19.378Z,1.20
2023-01-21T13:28:55.182Z,1.10
2023-01-21T13:31:32.132Z,1.10
2023-01-21T13:34:08.617Z,1.00
2023-01-21T13:36:48.078Z,1.10
2023-01-21T13:39:24.629Z,1.20
2023-01-21T13:42:05.289Z,1.30
2023-01-21T13:44:58.407Z,1.50
2023-01-21T13:47:42.098Z,1.40
2023-01-21T13:50:20.836Z,1.40
2023-01-21T13:53:06.132Z,1.50
2023-01-21T13:55:47.249Z,1.50
2023-01-21T13:58:24.286Z,1.40
2023-01-21T14:00:57.478Z,1.30
2023-01-21T14:03:32.661Z,1.30
2023-01-21T14:06:06.802Z,1.30
2023-01-21T14:08:42.477Z,1.20
2023-01-21T14:11:17.282Z,1.30
2023-01-21T14:14:18.730Z,1.50
2023-01-21T14:17:07.205Z,1.60
2023-01-21T14:20:05.194Z,1.60
2023-01-21T14:22:51.907Z,1.70
2023-01-21T14:25:32.469Z,1.80
2023-01-21T14:28:14.111Z,1.70
2023-01-21T14:30:49.157Z,1.70
2023-01-21T14:33:21.349Z,1.60
2023-01-21T14:35:56.587Z,1.50
2023-01-21T14:38:33.963Z,1.40
2023-01-21T14:41:06.966Z,1.30
2023-01-21T14:43:50.292Z,1.30
2023-01-21T14:46:27.411Z,1.30
2023-01-21T14:49:01.642Z,1.30
2023-01-21T14:51:31.543Z,1.20
2023-01-21T14:54:02.506Z,1.20
2023-01-21T14:56:33.072Z,1.10
2023-01-21T14:59:05.522Z,1.10
2023-01-21T15:01:39.498Z,1.10
2023-01-21T15:04:26.234Z,1.10
2023-01-21T15:06:57.583Z,1.10
2023-01-21T15:09:28.869Z,1.10
2023-01-21T15:12:01.554Z,1.10
2023-01-21T15:14:34.451Z,1.00
2023-01-21T15:17:02.660Z,1.10
2023-01-21T15:19:33.351Z,1.00
2023-01-21T15:22:16.708Z,1.00
2023-01-21T15:25:03.661Z,0.90
2023-01-21T15:27:32.801Z,0.90
2023-01-21T15:30:29.954Z,0.90
2023-01-21T15:33:00.241Z,1.00
2023-01-21T15:35:34.079Z,0.90
2023-01-21T15:38:04.245Z,0.90
2023-01-21T15:40:39.922Z,0.90
2023-01-21T15:43:15.708Z,0.90
2023-01-21T15:45:51.401Z,0.90
2023-01-21T15:48:50.831Z,1.00
2023-01-21T15:51:29.667Z,0.90
2023-01-21T15:54:12.247Z,0.90
2023-01-21T15:56:54.654Z,0.90
2023-01-21T15:59:44.172Z,0.90
2023-01-21T16:02:20.811Z,0.80
2023-01-21T16:05:07.590Z,0.80
2023-01-21T16:07:45.967Z,0.80
2023-01-21T16:10:20.627Z,0.80
2023-01-21T16:12:58.139Z,0.70
2023-01-21T16:15:39.330Z,0.70
2023-01-21T16:18:18.041Z,0.70
2023-01-21T16:20:49.280Z,0.70
2023-01-21T16:23:21.545Z,0.70
2023-01-21T16:25:51.248Z,0.70
2023-01-21T16:28:20.118Z,0.80
2023-01-21T16:30:59.328Z,0.80
2023-01-21T16:33:28.679Z,0.70
2023-01-21T16:36:00.858Z,0.70
2023-01-21T16:38:31.446Z,0.70
2023-01-21T16:41:20.551Z,0.70
2023-01-21T16:43:50.191Z,0.70
2023-01-21T16:46:20.518Z,0.70
2023-01-21T16:48:52.914Z,0.70
2023-01-21T16:51:23.578Z,0.70
2023-01-21T16:53:54.171Z,0.80
2023-01-21T16:56:26.631Z,0.70
2023-01-21T16:58:55.604Z,0.70
2023-01-21T17:01:27.652Z,0.70
2023-01-21T17:03:56.927Z,0.80
2023-01-21T17:06:28.836Z,0.70
2023-01-21T17:09:01.579Z,0.70
2023-01-21T17:11:31.408Z,0.70
2023-01-21T17:14:01.538Z,0.70
2023-01-21T17:16:33.700Z,0.70
2023-01-21T17:19:06.683Z,0.70
2023-01-21T17:21:38.441Z,0.80
2023-01-21T17:24:16.124Z,0.80
2023-01-21T17:26:46.946Z,0.70
2023-01-21T17:29:20.933Z,0.70
2023-01-21T17:31:56.427Z,0.80
2023-01-21T17:34:27.377Z,0.80
2023-01-21T17:36:56.740Z,0.80
2023-01-21T17:40:00.787Z,0.80
2023-01-21T17:42:39.915Z,0.90
2023-01-21T17:45:17.626Z,0.90
2023-01-21T17:48:07.986Z,0.90
2023-01-21T17:50:45.066Z,0.90
2023-01-21T17:53:22.567Z,0.90
2023-01-21T17:55:59.495Z,0.90
2023-01-21T17:58:45.699Z,1.00
2023-01-21T18:01:15.377Z,1.00
2023-01-21T18:03:43.433Z,1.10
2023-01-21T18:06:18.984Z,1.10
2023-01-21T18:08:46.808Z,1.10
2023-01-21T18:11:17.127Z,1.10
2023-01-21T18:13:44.959Z,1.10
2023-01-21T18:16:12.778Z,1.10
2023-01-21T18:18:40.667Z,1.10
2023-01-21T18:21:19.920Z,1.10
2023-01-21T18:24:15.137Z,1.20
2023-01-21T18:26:43.250Z,1.20
2023-01-21T18:29:12.439Z,1.20
2023-01-21T18:31:40.957Z,1.20
2023-01-21T18:34:10.984Z,1.20
2023-01-21T18:36:40.513Z,1.20
2023-01-21T18:39:13.057Z,1.20
2023-01-21T18:41:40.938Z,1.20
2023-01-21T18:44:09.314Z,1.20
2023-01-21T18:46:41.716Z,1.30
2023-01-21T18:49:17.303Z,1.30
2023-01-21T18:51:46.905Z,1.30
2023-01-21T18:54:15.651Z,1.30
2023-01-21T18:56:43.919Z,1.30
2023-01-21T18:59:14.408Z,1.30
2023-01-21T19:01:42.674Z,1.40
2023-01-21T19:04:15.606Z,1.30
2023-01-21T19:06:43.903Z,1.30
2023-01-21T19:09:20.355Z,1.30
2023-01-21T19:11:48.688Z,1.40
2023-01-21T19:14:16.615Z,1.40
2023-01-21T19:16:45.507Z,1.40
2023-01-21T19:19:14.432Z,1.40
2023-01-21T19:21:42.830Z,1.40
2023-01-21T19:24:12.279Z,1.30
2023-01-21T19:26:41.640Z,1.40
2023-01-21T19:29:14.657Z,1.30
2023-01-21T19:31:42.662Z,1.30
2023-01-21T19:34:11.551Z,1.30
2023-01-21T19:36:40.118Z,1.30
2023-01-21T19:39:16.603Z,1.20
2023-01-21T19:41:45.813Z,1.30
2023-01-21T19:44:13.620Z,1.30
2023-01-21T19:46:41.727Z,1.30
2023-01-21T19:49:14.882Z,1.20
2023-01-21T19:51:43.009Z,1.30
2023-01-21T19:54:11.097Z,1.20
2023-01-21T19:56:38.929Z,1.20
2023-01-21T19:59:08.349Z,1.30
2023-01-21T20:01:36.182Z,1.30
2023-01-21T20:04:04.061Z,1.30
2023-01-21T20:06:37.870Z,1.30
2023-01-21T20:09:06.041Z,1.30
2023-01-21T20:11:34.993Z,1.30
2023-01-21T20:14:02.815Z,1.30
2023-01-21T20:16:32.717Z,1.30
2023-01-21T20:19:02.107Z,1.40
2023-01-21T20:21:30.103Z,1.40
2023-01-21T20:23:57.922Z,1.40
2023-01-21T20:26:28.466Z,1.40
2023-01-21T20:28:57.679Z,1.40
2023-01-21T20:31:25.592Z,1.40
2023-01-21T20:33:54.775Z,1.40
2023-01-21T20:36:25.213Z,1.40
2023-01-21T20:38:54.135Z,1.40
2023-01-21T20:41:22.530Z,1.30
2023-01-21T20:43:50.561Z,1.30
2023-01-21T20:46:21.401Z,1.30
2023-01-21T20:48:51.560Z,1.30
2023-01-21T20:51:20.949Z,1.30
2023-01-21T20:53:48.831Z,1.20
2023-01-21T20:56:22.385Z,1.20
2023-01-21T20:58:50.333Z,1.20
2023-01-21T21:01:20.346Z,1.10
2023-01-21T21:03:49.043Z,1.10
2023-01-21T21:06:18.466Z,1.10
2023-01-21T21:08:48.190Z,1.00
2023-01-21T21:11:17.282Z,1.00
2023-01-21T21:13:48.154Z,1.00
2023-01-21T21:16:20.036Z,1.00
2023-01-21T21:18:48.410Z,1.00
2023-01-21T21:21:16.333Z,1.00
2023-01-21T21:23:46.434Z,1.10
2023-01-21T21:26:22.898Z,1.10
2023-01-21T21:28:51.604Z,1.10
2023-01-21T21:31:19.407Z,1.20
2023-01-21T21:33:47.237Z,1.10
2023-01-21T21:36:16.027Z,1.20
2023-01-21T21:38:44.587Z,1.10
2023-01-21T21:41:33.475Z,1.10
2023-01-21T21:44:02.627Z,1.20
2023-01-21T21:46:47.976Z,1.20
2023-01-21T21:49:15.814Z,1.20
2023-01-21T21:51:45.703Z,1.20
2023-01-21T21:54:15.849Z,1.20
2023-01-21T21:56:44.289Z,1.10
2023-01-21T21:59:14.110Z,1.10
2023-01-21T22:01:43.066Z,1.10
2023-01-21T22:04:11.251Z,1.00
2023-01-21T22:06:39.097Z,1.00
2023-01-21T22:09:07.219Z,1.00
2023-01-21T22:11:35.053Z,1.00
2023-01-21T22:14:03.897Z,0.90
2023-01-21T22:16:33.657Z,0.90
2023-01-21T22:19:02.179Z,0.90
2023-01-21T22:21:32.883Z,0.90
2023-01-21T22:24:01.674Z,1.00
2023-01-21T22:26:30.328Z,1.00
2023-01-21T22:28:58.349Z,1.00
2023-01-21T22:31:28.201Z,1.10
2023-01-21T22:33:58.600Z,1.00
2023-01-21T22:36:28.633Z,1.00
2023-01-21T22:38:56.591Z,1.10
2023-01-21T22:41:26.056Z,1.10
2023-01-21T22:43:54.626Z,1.10
2023-01-21T22:46:24.350Z,1.10
2023-01-21T22:48:53.653Z,1.10
2023-01-21T22:51:23.883Z,1.10
2023-01-21T22:53:53.206Z,1.10
2023-01-21T22:56:25.430Z,1.10
2023-01-21T22:58:59.525Z,1.10
2023-01-21T23:01:29.154Z,1.20
2023-01-21T23:03:57.774Z,1.20
2023-01-21T23:06:27.449Z,1.20
2023-01-21T23:08:55.998Z,1.20
2023-01-21T23:11:23.841Z,1.20
2023-01-21T23:13:53.119Z,1.20
2023-01-21T23:16:21.919Z,1.20
2023-01-21T23:18:50.401Z,1.20
2023-01-21T23:21:20.664Z,1.20
2023-01-21T23:23:50.154Z,1.30
2023-01-21T23:26:20.296Z,1.30
2023-01-21T23:28:48.623Z,1.30
2023-01-21T23:31:18.050Z,1.30
2023-01-21T23:33:49.327Z,1.40
2023-01-21T23:36:17.539Z,1.50
2023-01-21T23:38:45.816Z,1.50
2023-01-21T23:41:16.942Z,1.40
2023-01-21T23:43:45.148Z,1.50
2023-01-21T23:46:16.446Z,1.60
2023-01-21T23:48:44.638Z,1.80
2023-01-21T23:51:14.366Z,1.80
2023-01-21T23:53:42.713Z,1.70
2023-01-21T23:56:13.088Z,1.70
2023-01-21T23:58:42.311Z,1.80
